Time;durP1;ratioP1;P1;durP2;ratioP2;P2;SDS_P1;SDS_P2;PMS_P1;PMS_P2;Temp;Humidity;BMP_temperature;BMP_pressure;BME280_temperature;BME280_humidity;BME280_pressure;Samples;Min_cycle;Max_cycle;Signal;HPM_P1;HPM_P2
2021/03/31 00:00:12;;;;;;;3.90;2.20;;;;;;;;;;5029008;28;20480;-70
2021/03/31 00:02:38;;;;;;;2.30;1.37;;;;;;;;;;5052488;28;21038;-73
2021/03/31 00:05:04;;;;;;;3.70;3.00;;;;;;;;;;5053265;28;20419;-71
2021/03/31 00:07:33;;;;;;;5.93;3.17;;;;;;;;;;5053188;28;20486;-71
2021/03/31 00:09:59;;;;;;;4.60;2.53;;;;;;;;;;5052829;28;20479;-70
2021/03/31 00:12:27;;;;;;;2.07;1.87;;;;;;;;;;5033476;28;20422;-71
2021/03/31 00:14:55;;;;;;;3.13;2.47;;;;;;;;;;5023755;28;20454;-70
2021/03/31 00:17:21;;;;;;;3.43;1.80;;;;;;;;;;5034871;28;20493;-71
2021/03/31 00:19:47;;;;;;;3.90;3.30;;;;;;;;;;5034501;28;20504;-71
2021/03/31 00:22:13;;;;;;;3.00;2.37;;;;;;;;;;5054369;28;20408;-71
2021/03/31 00:24:39;;;;;;;3.30;1.87;;;;;;;;;;5052416;28;20497;-71
2021/03/31 00:27:05;;;;;;;4.10;1.93;;;;;;;;;;5034933;28;20484;-72
2021/03/31 00:29:31;;;;;;;3.97;2.47;;;;;;;;;;5035206;28;20439;-71
2021/03/31 00:31:57;;;;;;;2.10;1.77;;;;;;;;;;5034290;28;20449;-73
2021/03/31 00:34:23;;;;;;;2.40;2.20;;;;;;;;;;5033920;28;20406;-70
2021/03/31 00:36:49;;;;;;;3.23;2.00;;;;;;;;;;5034310;28;20416;-70
2021/03/31 00:39:15;;;;;;;5.47;2.83;;;;;;;;;;5052236;28;20482;-71
2021/03/31 00:41:41;;;;;;;1.97;1.80;;;;;;;;;;5051994;28;20573;-71
2021/03/31 00:44:07;;;;;;;4.30;2.40;;;;;;;;;;5015627;28;20409;-72
2021/03/31 00:46:33;;;;;;;3.20;1.90;;;;;;;;;;5032263;28;20470;-72
2021/03/31 00:49:01;;;;;;;1.50;1.40;;;;;;;;;;5035243;28;20411;-71
2021/03/31 00:51:28;;;;;;;3.10;2.30;;;;;;;;;;5051954;28;20406;-71
2021/03/31 00:53:54;;;;;;;2.50;2.23;;;;;;;;;;5051882;28;20407;-72
2021/03/31 00:56:20;;;;;;;1.90;1.73;;;;;;;;;;5034198;28;20424;-72
2021/03/31 00:58:46;;;;;;;3.00;2.43;;;;;;;;;;5051694;28;20505;-71
2021/03/31 01:01:12;;;;;;;6.87;4.20;;;;;;;;;;5033661;28;20418;-71
2021/03/31 01:03:38;;;;;;;1.80;1.37;;;;;;;;;;5033904;28;20412;-71
2021/03/31 01:06:05;;;;;;;2.80;1.97;;;;;;;;;;5033375;28;20433;-72
2021/03/31 01:08:31;;;;;;;2.20;2.00;;;;;;;;;;5051482;28;20452;-71
2021/03/31 01:11:00;;;;;;;6.83;2.30;;;;;;;;;;5034000;28;20923;-71
2021/03/31 01:13:44;;;;;;;5.07;1.70;;;;;;;;;;5051250;28;20476;-71
2021/03/31 01:16:10;;;;;;;7.10;2.57;;;;;;;;;;5034366;28;20438;-71
2021/03/31 01:18:40;;;;;;;2.17;1.77;;;;;;;;;;5051142;28;20433;-73
2021/03/31 01:21:22;;;;;;;3.60;1.40;;;;;;;;;;5034135;28;20491;-73
2021/03/31 01:23:51;;;;;;;4.53;2.30;;;;;;;;;;5032185;28;20998;-72
2021/03/31 01:26:36;;;;;;;2.53;2.23;;;;;;;;;;5033768;28;20803;-73
2021/03/31 01:29:05;;;;;;;2.40;1.20;;;;;;;;;;5032701;28;20418;-73
2021/03/31 01:31:31;;;;;;;4.70;2.20;;;;;;;;;;5051114;28;20445;-73
2021/03/31 01:34:36;;;;;;;2.70;2.30;;;;;;;;;;5033040;28;20415;-72
2021/03/31 01:37:03;;;;;;;2.80;1.53;;;;;;;;;;4934791;29;20465;-72
2021/03/31 01:39:30;;;;;;;2.60;1.83;;;;;;;;;;4934794;29;20419;-73
2021/03/31 01:41:58;;;;;;;1.50;1.40;;;;;;;;;;4936729;29;20921;-73
2021/03/31 01:44:25;;;;;;;5.63;1.83;;;;;;;;;;4950375;28;20407;-71
2021/03/31 01:46:53;;;;;;;3.07;2.30;;;;;;;;;;4936321;29;20941;-73
2021/03/31 01:49:22;;;;;;;1.60;1.40;;;;;;;;;;4936277;29;20763;-74
2021/03/31 01:51:55;;;;;;;5.37;2.30;;;;;;;;;;4950369;29;20446;-74
2021/03/31 01:54:21;;;;;;;52.70;39.00;;;;;;;;;;4934634;28;20466;-74
2021/03/31 01:56:48;;;;;;;2.53;1.73;;;;;;;;;;4950421;29;20424;-74
2021/03/31 01:59:16;;;;;;;1.93;1.00;;;;;;;;;;4950273;29;20442;-74
2021/03/31 02:01:42;;;;;;;3.43;2.40;;;;;;;;;;4950260;29;20412;-73
2021/03/31 02:04:09;;;;;;;1.37;1.10;;;;;;;;;;4950459;29;20457;-73
2021/03/31 02:06:35;;;;;;;2.27;1.70;;;;;;;;;;4933973;28;21186;-73
2021/03/31 02:09:05;;;;;;;5.30;3.13;;;;;;;;;;5049754;28;20904;-73
2021/03/31 02:11:31;;;;;;;1.87;1.77;;;;;;;;;;5050284;28;20885;-73
2021/03/31 02:13:58;;;;;;;6.70;1.93;;;;;;;;;;5032687;28;21015;-73
2021/03/31 02:16:25;;;;;;;2.60;1.27;;;;;;;;;;5033019;28;20423;-73
2021/03/31 02:18:51;;;;;;;2.20;2.00;;;;;;;;;;5032506;28;20535;-73
2021/03/31 02:21:19;;;;;;;7.23;1.70;;;;;;;;;;5050448;28;20464;-73
2021/03/31 02:23:46;;;;;;;2.80;1.40;;;;;;;;;;5067695;28;20402;-73
2021/03/31 02:26:12;;;;;;;7.63;1.63;;;;;;;;;;5034849;28;20966;-74
2021/03/31 02:28:38;;;;;;;7.23;2.83;;;;;;;;;;5032616;28;20450;-73
2021/03/31 02:31:06;;;;;;;3.80;2.40;;;;;;;;;;5050143;28;20399;-74
2021/03/31 02:33:33;;;;;;;1.90;1.53;;;;;;;;;;5049744;28;20422;-74
2021/03/31 02:36:00;;;;;;;5.07;1.43;;;;;;;;;;5050079;28;20423;-73
2021/03/31 02:38:30;;;;;;;3.30;1.70;;;;;;;;;;5050544;28;20419;-73
2021/03/31 02:40:57;;;;;;;1.50;1.40;;;;;;;;;;5032873;28;20986;-73
2021/03/31 02:43:24;;;;;;;4.30;2.77;;;;;;;;;;5050590;28;20868;-73
2021/03/31 02:45:55;;;;;;;2.03;1.53;;;;;;;;;;5032855;28;20433;-73
2021/03/31 02:48:22;;;;;;;1.97;1.67;;;;;;;;;;5050366;28;20549;-75
2021/03/31 02:50:48;;;;;;;3.37;2.00;;;;;;;;;;5049625;28;20881;-74
2021/03/31 02:53:17;;;;;;;1.87;1.47;;;;;;;;;;5031955;28;20454;-73
2021/03/31 02:55:42;;;;;;;2.60;2.17;;;;;;;;;;5032360;28;20476;-74
2021/03/31 02:58:09;;;;;;;1.80;1.40;;;;;;;;;;5036165;28;20625;-73
2021/03/31 03:00:36;;;;;;;0.87;0.77;;;;;;;;;;5053958;28;20407;-73
2021/03/31 03:03:03;;;;;;;5.33;4.83;;;;;;;;;;5035968;28;20447;-73
2021/03/31 03:05:29;;;;;;;1.73;1.23;;;;;;;;;;5053662;28;20452;-73
2021/03/31 03:07:55;;;;;;;1.47;1.17;;;;;;;;;;5035985;28;20419;-73
2021/03/31 03:10:21;;;;;;;1.60;1.50;;;;;;;;;;5035873;28;21144;-73
2021/03/31 03:12:49;;;;;;;2.47;2.00;;;;;;;;;;5035689;28;20453;-73
2021/03/31 03:15:16;;;;;;;1.00;0.90;;;;;;;;;;5034398;28;20895;-72
2021/03/31 03:17:44;;;;;;;1.63;1.43;;;;;;;;;;5049458;28;21095;-72
2021/03/31 03:20:11;;;;;;;5.90;2.10;;;;;;;;;;5053574;28;20415;-72
2021/03/31 03:22:38;;;;;;;2.53;2.33;;;;;;;;;;5033890;28;20852;-72
2021/03/31 03:25:05;;;;;;;2.93;2.73;;;;;;;;;;5035764;28;20427;-73
2021/03/31 03:27:31;;;;;;;4.33;2.10;;;;;;;;;;5035598;28;20446;-73
2021/03/31 03:29:58;;;;;;;3.10;2.47;;;;;;;;;;5033521;28;20481;-72
2021/03/31 03:32:24;;;;;;;3.60;2.40;;;;;;;;;;5027932;28;20465;-73
2021/03/31 03:34:50;;;;;;;2.27;1.70;;;;;;;;;;5023872;28;20514;-74
2021/03/31 03:37:19;;;;;;;1.83;1.40;;;;;;;;;;5043271;28;20483;-72
2021/03/31 03:39:45;;;;;;;4.23;3.83;;;;;;;;;;5028810;28;20472;-72
2021/03/31 03:42:11;;;;;;;1.43;1.20;;;;;;;;;;5025986;28;20418;-72
2021/03/31 03:44:37;;;;;;;1.50;1.27;;;;;;;;;;5034816;28;20442;-73
2021/03/31 03:47:04;;;;;;;9.70;1.93;;;;;;;;;;5047462;28;20408;-74
2021/03/31 03:49:30;;;;;;;3.17;1.60;;;;;;;;;;5020278;28;20415;-74
2021/03/31 03:51:56;;;;;;;2.07;1.50;;;;;;;;;;5034967;28;20422;-74
2021/03/31 03:54:22;;;;;;;1.87;1.33;;;;;;;;;;5053126;28;20427;-74
2021/03/31 03:56:49;;;;;;;1.63;1.47;;;;;;;;;;5034889;28;20439;-74
2021/03/31 03:59:22;;;;;;;2.20;2.00;;;;;;;;;;5052838;28;20774;-71
2021/03/31 04:01:49;;;;;;;3.23;1.17;;;;;;;;;;5052589;28;20806;-74
2021/03/31 04:04:15;;;;;;;3.00;2.07;;;;;;;;;;5025984;28;20415;-73
2021/03/31 04:06:41;;;;;;;1.27;1.17;;;;;;;;;;5052693;28;20457;-72
2021/03/31 04:09:07;;;;;;;4.90;2.03;;;;;;;;;;5033810;28;20399;-72
2021/03/31 04:11:34;;;;;;;1.57;1.47;;;;;;;;;;5046567;28;20423;-73
2021/03/31 04:14:01;;;;;;;2.80;1.70;;;;;;;;;;5045256;28;20459;-74
2021/03/31 04:16:29;;;;;;;1.93;1.30;;;;;;;;;;5040653;28;20434;-74
2021/03/31 04:18:59;;;;;;;2.83;1.63;;;;;;;;;;5051673;28;20458;-74
2021/03/31 04:21:25;;;;;;;1.47;1.37;;;;;;;;;;5019195;28;20432;-74
2021/03/31 04:23:51;;;;;;;1.90;1.80;;;;;;;;;;5053746;28;20423;-75
2021/03/31 04:26:17;;;;;;;1.00;0.90;;;;;;;;;;5034347;28;20419;-74
2021/03/31 04:28:43;;;;;;;3.10;1.70;;;;;;;;;;5050778;28;20421;-73
2021/03/31 04:31:11;;;;;;;1.63;1.53;;;;;;;;;;5023454;28;20494;-73
2021/03/31 04:33:38;;;;;;;1.53;1.13;;;;;;;;;;5033519;28;20505;-72
2021/03/31 04:36:04;;;;;;;2.20;1.37;;;;;;;;;;5033819;28;20544;-73
2021/03/31 04:38:30;;;;;;;2.33;1.20;;;;;;;;;;5047908;28;20506;-73
2021/03/31 04:40:57;;;;;;;14.53;2.13;;;;;;;;;;5051545;28;20450;-72
2021/03/31 04:43:24;;;;;;;2.40;1.27;;;;;;;;;;5027458;28;20418;-72
2021/03/31 04:45:50;;;;;;;2.07;1.63;;;;;;;;;;5034110;28;20450;-72
2021/03/31 04:48:16;;;;;;;1.47;1.37;;;;;;;;;;5051666;28;20413;-73
2021/03/31 04:50:42;;;;;;;2.33;1.60;;;;;;;;;;5025499;28;20444;-74
2021/03/31 04:53:08;;;;;;;1.50;1.30;;;;;;;;;;5032140;28;20421;-76
2021/03/31 04:55:34;;;;;;;2.77;1.87;;;;;;;;;;5051255;28;20434;-74
2021/03/31 04:58:00;;;;;;;2.13;1.80;;;;;;;;;;5019620;28;20451;-74
2021/03/31 05:00:26;;;;;;;2.70;1.50;;;;;;;;;;5016057;28;20429;-74
2021/03/31 05:02:55;;;;;;;2.20;2.10;;;;;;;;;;5028754;28;20910;-74
2021/03/31 05:05:20;;;;;;;1.00;0.83;;;;;;;;;;5032158;28;20424;-74
2021/03/31 05:07:46;;;;;;;1.47;1.37;;;;;;;;;;5028491;28;20759;-74
2021/03/31 05:10:13;;;;;;;1.80;1.70;;;;;;;;;;5030156;28;20421;-74
2021/03/31 05:12:39;;;;;;;1.70;1.60;;;;;;;;;;5028539;28;20453;-74
2021/03/31 05:15:05;;;;;;;5.20;2.20;;;;;;;;;;5030680;28;20453;-74
2021/03/31 05:17:31;;;;;;;2.50;1.90;;;;;;;;;;5030802;28;20461;-74
2021/03/31 05:19:57;;;;;;;2.00;1.80;;;;;;;;;;5026844;28;20828;-74
2021/03/31 05:22:23;;;;;;;1.60;1.30;;;;;;;;;;5048100;28;20466;-74
2021/03/31 05:24:49;;;;;;;1.17;0.93;;;;;;;;;;5031468;28;20452;-74
2021/03/31 05:27:16;;;;;;;5.10;2.37;;;;;;;;;;5048312;28;20464;-74
2021/03/31 05:29:42;;;;;;;4.27;1.00;;;;;;;;;;5028914;28;20504;-74
2021/03/31 05:32:08;;;;;;;3.27;2.30;;;;;;;;;;5047752;28;20461;-75
2021/03/31 05:34:34;;;;;;;2.13;1.93;;;;;;;;;;5048081;28;20428;-76
2021/03/31 05:37:00;;;;;;;1.37;1.27;;;;;;;;;;5049151;28;20735;-76
2021/03/31 05:39:26;;;;;;;5.07;4.17;;;;;;;;;;5031661;28;20424;-74
2021/03/31 05:41:52;;;;;;;2.63;1.00;;;;;;;;;;5048579;28;20970;-74
2021/03/31 05:44:18;;;;;;;2.93;1.90;;;;;;;;;;5049408;28;20410;-74
2021/03/31 05:46:44;;;;;;;2.27;1.23;;;;;;;;;;5049310;28;20409;-74
2021/03/31 05:49:10;;;;;;;1.73;1.20;;;;;;;;;;5047934;28;20408;-75
2021/03/31 05:51:36;;;;;;;9.40;3.40;;;;;;;;;;5025845;28;20434;-74
2021/03/31 05:54:02;;;;;;;7.20;1.17;;;;;;;;;;5040176;28;20397;-76
2021/03/31 05:56:31;;;;;;;2.53;2.30;;;;;;;;;;5039944;28;20756;-74
2021/03/31 05:59:01;;;;;;;1.93;1.00;;;;;;;;;;5043988;28;20450;-74
2021/03/31 06:01:27;;;;;;;1.10;1.00;;;;;;;;;;5031404;28;20776;-74
2021/03/31 06:03:56;;;;;;;2.20;1.97;;;;;;;;;;5049069;28;20501;-74
2021/03/31 06:06:24;;;;;;;1.67;1.43;;;;;;;;;;5049366;28;20425;-74
2021/03/31 06:08:50;;;;;;;3.60;3.33;;;;;;;;;;5029230;28;21020;-74
2021/03/31 06:11:20;;;;;;;1.53;1.40;;;;;;;;;;5048173;28;20501;-74
2021/03/31 06:14:01;;;;;;;5.87;2.33;;;;;;;;;;5031439;28;20431;-74
2021/03/31 06:16:32;;;;;;;2.87;1.57;;;;;;;;;;5028372;28;20428;-74
2021/03/31 06:18:58;;;;;;;2.53;2.33;;;;;;;;;;5046725;28;20456;-74
2021/03/31 06:21:24;;;;;;;5.00;1.77;;;;;;;;;;5031408;28;20410;-74
2021/03/31 06:24:02;;;;;;;5.20;1.53;;;;;;;;;;5049098;28;20414;-74
2021/03/31 06:26:29;;;;;;;2.30;1.17;;;;;;;;;;5031497;28;20434;-74
2021/03/31 06:28:57;;;;;;;1.47;1.30;;;;;;;;;;5049054;28;20910;-74
2021/03/31 06:31:27;;;;;;;2.10;1.37;;;;;;;;;;5049831;28;20414;-74
2021/03/31 06:33:53;;;;;;;3.03;1.37;;;;;;;;;;5049287;28;20773;-74
2021/03/31 06:36:33;;;;;;;2.37;1.30;;;;;;;;;;5031060;28;20418;-74
2021/03/31 06:38:59;;;;;;;3.67;2.27;;;;;;;;;;5032774;28;20446;-74
2021/03/31 06:41:29;;;;;;;3.37;3.17;;;;;;;;;;5031756;28;20412;-74
2021/03/31 06:46:59;;;;;;;1.40;1.30;;;;;;;;;;5045761;28;20427;-74
2021/03/31 06:49:25;;;;;;;2.80;0.80;;;;;;;;;;5049601;28;20400;-75
2021/03/31 06:51:51;;;;;;;4.07;1.43;;;;;;;;;;5026380;28;20410;-74
2021/03/31 06:54:22;;;;;;;5.07;2.07;;;;;;;;;;5024475;28;20454;-74
2021/03/31 06:56:55;;;;;;;2.50;1.57;;;;;;;;;;5042256;28;20407;-73
2021/03/31 06:59:29;;;;;;;5.90;1.60;;;;;;;;;;5043763;28;20422;-74
2021/03/31 07:01:56;;;;;;;1.70;1.37;;;;;;;;;;5028260;28;20407;-74
2021/03/31 07:04:22;;;;;;;9.13;3.73;;;;;;;;;;5045445;28;20438;-74
2021/03/31 07:07:03;;;;;;;6.00;2.97;;;;;;;;;;5021845;28;21032;-74
2021/03/31 07:09:29;;;;;;;8.63;2.33;;;;;;;;;;5023133;28;20969;-74
2021/03/31 07:11:55;;;;;;;3.37;2.00;;;;;;;;;;5052856;28;20767;-74
2021/03/31 07:14:22;;;;;;;3.53;2.27;;;;;;;;;;5021038;28;20527;-75
2021/03/31 07:16:50;;;;;;;4.90;2.23;;;;;;;;;;5020317;28;20892;-74
2021/03/31 07:19:18;;;;;;;2.60;1.70;;;;;;;;;;5042242;28;20412;-74
2021/03/31 07:21:44;;;;;;;3.17;2.60;;;;;;;;;;5020326;28;20428;-74
2021/03/31 07:24:13;;;;;;;6.70;3.07;;;;;;;;;;5045030;28;20411;-74
2021/03/31 07:26:40;;;;;;;4.00;2.40;;;;;;;;;;5051765;28;20568;-74
2021/03/31 07:29:06;;;;;;;4.27;3.93;;;;;;;;;;5053551;28;20481;-75
2021/03/31 07:31:33;;;;;;;10.67;4.17;;;;;;;;;;5035015;28;20885;-75
2021/03/31 07:34:11;;;;;;;3.93;1.70;;;;;;;;;;5053311;28;20411;-74
2021/03/31 07:36:38;;;;;;;5.73;2.23;;;;;;;;;;5051260;28;20502;-74
2021/03/31 07:39:06;;;;;;;4.97;4.57;;;;;;;;;;5042854;28;20464;-75
2021/03/31 07:41:35;;;;;;;7.13;2.50;;;;;;;;;;5025941;28;20408;-74
2021/03/31 07:44:01;;;;;;;3.17;1.77;;;;;;;;;;5047277;28;20420;-74
2021/03/31 07:46:29;;;;;;;4.40;3.70;;;;;;;;;;5052175;28;20774;-75
2021/03/31 07:48:56;;;;;;;12.13;3.20;;;;;;;;;;5028005;28;20408;-75
2021/03/31 07:51:24;;;;;;;9.47;5.00;;;;;;;;;;5024925;28;20389;-75
2021/03/31 07:53:51;;;;;;;4.30;3.83;;;;;;;;;;5043408;28;20400;-75
2021/03/31 07:56:18;;;;;;;4.73;3.70;;;;;;;;;;5041613;28;20432;-76
2021/03/31 07:59:06;;;;;;;5.13;3.10;;;;;;;;;;5033183;28;20536;-73
2021/03/31 08:01:34;;;;;;;3.97;3.10;;;;;;;;;;5021932;28;20445;-75
2021/03/31 08:04:02;;;;;;;33.37;4.00;;;;;;;;;;5033840;28;20395;-75
2021/03/31 08:06:31;;;;;;;7.03;3.37;;;;;;;;;;5023011;28;20435;-75
2021/03/31 08:08:59;;;;;;;6.23;3.70;;;;;;;;;;5041291;28;20496;-75
2021/03/31 08:11:37;;;;;;;8.10;3.53;;;;;;;;;;5026074;28;20415;-74
2021/03/31 08:14:14;;;;;;;5.07;3.47;;;;;;;;;;5067144;28;20458;-76
2021/03/31 08:16:41;;;;;;;5.80;4.30;;;;;;;;;;5018939;28;20438;-75
2021/03/31 08:19:09;;;;;;;5.70;4.17;;;;;;;;;;5061017;28;21001;-75
2021/03/31 08:21:35;;;;;;;6.07;3.60;;;;;;;;;;5038939;28;20503;-75
2021/03/31 08:24:05;;;;;;;6.53;4.40;;;;;;;;;;5049499;28;20405;-75
2021/03/31 08:26:44;;;;;;;5.23;4.20;;;;;;;;;;5033092;28;20435;-75
2021/03/31 08:29:19;;;;;;;4.37;3.37;;;;;;;;;;5043179;28;20419;-75
2021/03/31 08:31:55;;;;;;;14.90;5.17;;;;;;;;;;5049981;28;20410;-75
2021/03/31 08:34:23;;;;;;;9.03;3.50;;;;;;;;;;5033769;28;20498;-75
2021/03/31 08:36:49;;;;;;;7.43;3.73;;;;;;;;;;5030808;28;20408;-75
2021/03/31 08:39:15;;;;;;;5.30;4.80;;;;;;;;;;5054174;28;20408;-75
2021/03/31 08:41:46;;;;;;;6.77;3.50;;;;;;;;;;5052335;28;20386;-76
2021/03/31 08:44:17;;;;;;;4.17;3.43;;;;;;;;;;5047601;28;20449;-75
2021/03/31 08:46:43;;;;;;;14.57;7.53;;;;;;;;;;5047661;28;20992;-76
2021/03/31 08:49:25;;;;;;;22.93;6.60;;;;;;;;;;5052504;28;20386;-75
2021/03/31 08:51:52;;;;;;;11.07;4.87;;;;;;;;;;5042153;28;20473;-73
2021/03/31 08:54:19;;;;;;;8.20;5.80;;;;;;;;;;5028216;28;20990;-76
2021/03/31 08:56:48;;;;;;;4.20;3.00;;;;;;;;;;5029405;28;20416;-74
2021/03/31 08:59:15;;;;;;;6.27;3.67;;;;;;;;;;5049881;28;20475;-74
2021/03/31 09:01:42;;;;;;;5.90;4.17;;;;;;;;;;5034717;28;20502;-74
2021/03/31 09:04:15;;;;;;;9.67;4.43;;;;;;;;;;5067715;28;20897;-74
2021/03/31 09:06:41;;;;;;;7.10;4.47;;;;;;;;;;5017482;28;20438;-76
2021/03/31 09:09:07;;;;;;;10.80;6.17;;;;;;;;;;5024852;28;20965;-74
2021/03/31 09:11:33;;;;;;;7.30;4.37;;;;;;;;;;5054895;28;20919;-74
2021/03/31 09:14:19;;;;;;;10.17;4.13;;;;;;;;;;5066969;28;20495;-77
2021/03/31 09:16:52;;;;;;;5.77;3.67;;;;;;;;;;5017078;28;20758;-72
2021/03/31 09:19:18;;;;;;;6.93;3.50;;;;;;;;;;5049138;28;20442;-71
2021/03/31 09:21:44;;;;;;;9.60;6.07;;;;;;;;;;5030988;28;20390;-71
2021/03/31 09:24:19;;;;;;;8.73;5.27;;;;;;;;;;5058601;28;20422;-74
2021/03/31 09:26:55;;;;;;;6.17;3.90;;;;;;;;;;5033177;28;20422;-74
2021/03/31 09:29:21;;;;;;;4.10;2.97;;;;;;;;;;5026398;28;20458;-74
2021/03/31 09:31:48;;;;;;;9.93;4.90;;;;;;;;;;5016366;28;20404;-74
2021/03/31 09:34:14;;;;;;;8.43;4.60;;;;;;;;;;5050526;28;20393;-74
2021/03/31 09:36:40;;;;;;;9.00;4.40;;;;;;;;;;5035592;28;20870;-75
2021/03/31 09:39:07;;;;;;;4.07;3.13;;;;;;;;;;5053140;28;20431;-73
2021/03/31 09:41:33;;;;;;;9.17;5.00;;;;;;;;;;5030015;28;20411;-73
2021/03/31 09:43:59;;;;;;;10.13;4.33;;;;;;;;;;5033336;28;20929;-73
2021/03/31 09:46:26;;;;;;;6.40;3.80;;;;;;;;;;5055458;28;20427;-72
2021/03/31 09:48:52;;;;;;;6.47;5.13;;;;;;;;;;5021985;28;20468;-72
2021/03/31 09:51:19;;;;;;;7.13;3.20;;;;;;;;;;5035761;28;20400;-73
2021/03/31 09:53:45;;;;;;;4.70;3.77;;;;;;;;;;5024326;28;20498;-74
2021/03/31 09:56:12;;;;;;;6.70;4.27;;;;;;;;;;5056005;28;20427;-75
2021/03/31 09:58:39;;;;;;;6.20;3.77;;;;;;;;;;5056488;28;20931;-74
2021/03/31 10:01:05;;;;;;;9.50;4.53;;;;;;;;;;5055408;28;20419;-75
2021/03/31 10:03:32;;;;;;;8.20;6.03;;;;;;;;;;5036678;28;20445;-75
2021/03/31 10:06:13;;;;;;;8.63;5.13;;;;;;;;;;5032127;28;20428;-75
2021/03/31 10:08:40;;;;;;;5.60;4.23;;;;;;;;;;5044756;28;20458;-73
2021/03/31 10:11:09;;;;;;;6.20;5.27;;;;;;;;;;5062695;28;20392;-74
2021/03/31 10:13:36;;;;;;;8.90;6.27;;;;;;;;;;5061129;28;20413;-74
2021/03/31 10:16:04;;;;;;;8.17;4.67;;;;;;;;;;5034959;28;20506;-74
2021/03/31 10:18:32;;;;;;;7.13;3.23;;;;;;;;;;5048681;28;20475;-74
2021/03/31 10:20:59;;;;;;;9.97;5.07;;;;;;;;;;5058714;28;20447;-74
2021/03/31 10:23:36;;;;;;;9.50;5.00;;;;;;;;;;5037902;28;20428;-74
2021/03/31 10:26:21;;;;;;;9.50;4.53;;;;;;;;;;5043607;28;20967;-74
2021/03/31 10:28:47;;;;;;;7.33;4.57;;;;;;;;;;5061053;28;20469;-74
2021/03/31 10:31:33;;;;;;;8.00;4.37;;;;;;;;;;5071693;28;20402;-75
2021/03/31 10:34:01;;;;;;;9.53;4.80;;;;;;;;;;5061945;28;20896;-75
2021/03/31 10:36:41;;;;;;;7.90;4.00;;;;;;;;;;5069957;28;20525;-75
2021/03/31 10:50:05;;;;;;;3.13;2.70;;;;;;;;;;5065446;28;20406;-74
2021/03/31 10:52:35;;;;;;;10.17;3.90;;;;;;;;;;5046691;28;20435;-73
2021/03/31 10:55:01;;;;;;;7.67;4.53;;;;;;;;;;5026183;28;20443;-72
2021/03/31 10:57:28;;;;;;;6.40;3.43;;;;;;;;;;5059951;28;20445;-78
2021/03/31 10:59:54;;;;;;;3.93;3.43;;;;;;;;;;5044162;28;20419;-75
2021/03/31 11:02:22;;;;;;;9.03;4.97;;;;;;;;;;5039614;28;20406;-75
2021/03/31 11:04:48;;;;;;;7.30;4.30;;;;;;;;;;5061832;28;20442;-73
2021/03/31 11:07:14;;;;;;;8.03;5.23;;;;;;;;;;5057586;28;20469;-74
2021/03/31 11:09:43;;;;;;;5.43;2.97;;;;;;;;;;5058314;28;20411;-73
2021/03/31 11:12:10;;;;;;;6.37;5.40;;;;;;;;;;5069316;28;20410;-72
2021/03/31 11:14:36;;;;;;;16.10;7.13;;;;;;;;;;5060633;28;20797;-73
2021/03/31 11:17:05;;;;;;;6.23;4.63;;;;;;;;;;5043826;28;20414;-74
2021/03/31 11:27:42;;;;;;;13.70;7.73;;;;;;;;;;5059246;28;20432;-74
2021/03/31 11:30:09;;;;;;;12.80;4.63;;;;;;;;;;5040326;28;20786;-73
2021/03/31 11:32:36;;;;;;;7.20;3.83;;;;;;;;;;5058793;28;20425;-73
2021/03/31 11:35:02;;;;;;;10.90;5.17;;;;;;;;;;5058583;28;20430;-73
2021/03/31 11:37:28;;;;;;;5.90;4.00;;;;;;;;;;5040865;28;20407;-73
2021/03/31 11:39:54;;;;;;;9.23;3.70;;;;;;;;;;5040449;28;20967;-74
2021/03/31 11:42:22;;;;;;;6.30;4.80;;;;;;;;;;5036814;28;20810;-74
2021/03/31 11:44:48;;;;;;;6.33;3.33;;;;;;;;;;5037432;28;20439;-74
2021/03/31 11:47:16;;;;;;;6.77;3.00;;;;;;;;;;5040872;28;20454;-73
2021/03/31 11:49:42;;;;;;;4.50;3.10;;;;;;;;;;5058154;28;20421;-74
2021/03/31 11:52:08;;;;;;;5.03;4.57;;;;;;;;;;5040331;28;20407;-74
2021/03/31 11:54:34;;;;;;;7.50;4.60;;;;;;;;;;5058054;28;20929;-74
2021/03/31 11:57:02;;;;;;;7.67;3.80;;;;;;;;;;5054780;28;20420;-74
2021/03/31 11:59:28;;;;;;;13.77;12.63;;;;;;;;;;5037333;28;20469;-76
2021/03/31 12:01:56;;;;;;;7.87;5.07;;;;;;;;;;5039113;28;20412;-76
2021/03/31 12:04:22;;;;;;;10.90;5.13;;;;;;;;;;5022602;28;20422;-76
2021/03/31 12:06:48;;;;;;;8.17;4.20;;;;;;;;;;5040015;28;20418;-75
2021/03/31 12:09:14;;;;;;;4.90;3.77;;;;;;;;;;5037609;28;20471;-76
2021/03/31 12:11:40;;;;;;;6.53;3.30;;;;;;;;;;5058334;28;20422;-76
2021/03/31 12:14:06;;;;;;;8.10;3.83;;;;;;;;;;5062158;28;20434;-75
2021/03/31 12:16:32;;;;;;;5.83;3.63;;;;;;;;;;5033278;28;20985;-76
2021/03/31 12:18:58;;;;;;;10.00;3.67;;;;;;;;;;5069426;28;20403;-74
2021/03/31 12:21:24;;;;;;;7.73;3.70;;;;;;;;;;5052555;28;21002;-74
2021/03/31 12:23:50;;;;;;;9.90;4.30;;;;;;;;;;5026574;28;20559;-75
2021/03/31 12:26:16;;;;;;;7.87;3.43;;;;;;;;;;5031997;28;20489;-75
2021/03/31 12:28:49;;;;;;;4.40;3.03;;;;;;;;;;5042573;28;20466;-74
2021/03/31 12:31:15;;;;;;;10.30;4.17;;;;;;;;;;5024396;28;20425;-74
2021/03/31 12:33:41;;;;;;;5.00;3.97;;;;;;;;;;5028994;28;20411;-74
2021/03/31 12:36:07;;;;;;;5.63;2.47;;;;;;;;;;5032163;28;20944;-74
2021/03/31 12:38:33;;;;;;;7.23;5.00;;;;;;;;;;5052429;28;20409;-75
2021/03/31 12:40:59;;;;;;;5.83;4.30;;;;;;;;;;5032819;28;20536;-74
2021/03/31 12:43:25;;;;;;;8.80;5.83;;;;;;;;;;5050543;28;21149;-75
2021/03/31 12:45:51;;;;;;;5.23;2.87;;;;;;;;;;5051356;28;20783;-74
2021/03/31 12:48:17;;;;;;;4.93;2.80;;;;;;;;;;5030758;28;20455;-74
2021/03/31 12:50:44;;;;;;;5.80;3.43;;;;;;;;;;5031602;28;20999;-74
2021/03/31 12:53:20;;;;;;;3.80;2.43;;;;;;;;;;5030197;28;20522;-75
2021/03/31 12:55:49;;;;;;;8.80;3.90;;;;;;;;;;5025403;28;20434;-75
2021/03/31 12:58:19;;;;;;;9.20;4.33;;;;;;;;;;5055498;28;20413;-76
2021/03/31 13:00:46;;;;;;;6.27;3.70;;;;;;;;;;5060861;28;20419;-75
2021/03/31 13:03:12;;;;;;;12.20;5.93;;;;;;;;;;5040817;28;20402;-75
2021/03/31 13:05:39;;;;;;;6.63;3.30;;;;;;;;;;5027210;28;20868;-74
2021/03/31 13:08:11;;;;;;;8.60;5.23;;;;;;;;;;5049025;28;20454;-74
2021/03/31 13:10:37;;;;;;;6.40;3.77;;;;;;;;;;5058755;28;20415;-75
2021/03/31 13:26:53;;;;;;;3.50;3.20;;;;;;;;;;5063159;28;20410;-69
2021/03/31 13:32:11;;;;;;;6.30;4.00;;;;;;;;;;5055170;28;20398;-71
2021/03/31 13:34:44;;;;;;;5.57;2.83;;;;;;;;;;5051094;28;20440;-71
2021/03/31 13:37:16;;;;;;;9.70;5.13;;;;;;;;;;5042793;28;20398;-70
2021/03/31 13:39:45;;;;;;;3.30;2.80;;;;;;;;;;5050706;28;20411;-70
2021/03/31 13:42:14;;;;;;;8.13;3.83;;;;;;;;;;5032348;28;20414;-71
2021/03/31 13:44:40;;;;;;;8.10;5.10;;;;;;;;;;5032938;23;20485;-74
2021/03/31 13:47:11;;;;;;;5.37;3.47;;;;;;;;;;5066336;28;20409;-77
2021/03/31 13:49:41;;;;;;;4.30;2.77;;;;;;;;;;5066836;28;20406;-73
2021/03/31 13:55:19;;;;;;;4.73;3.03;;;;;;;;;;5073137;28;20405;-73
2021/03/31 13:57:25;;;;;;;7.50;4.17;;;;;;;;;;5048201;28;20261;-73
2021/03/31 13:59:53;;;;;;;5.00;3.27;;;;;;;;;;5071972;28;20410;-73
2021/03/31 14:02:19;;;;;;;9.93;4.60;;;;;;;;;;5071642;28;20466;-73
2021/03/31 14:04:45;;;;;;;5.00;3.20;;;;;;;;;;5057980;28;20462;-74
2021/03/31 14:07:11;;;;;;;5.20;3.80;;;;;;;;;;5049280;28;20422;-74
2021/03/31 14:09:38;;;;;;;5.00;3.07;;;;;;;;;;5071945;28;20422;-73
2021/03/31 14:12:06;;;;;;;5.87;3.63;;;;;;;;;;5067166;28;20432;-74
2021/03/31 14:14:32;;;;;;;6.73;3.43;;;;;;;;;;5053028;28;20807;-73
2021/03/31 14:17:05;;;;;;;7.20;4.27;;;;;;;;;;5073435;28;20420;-73
2021/03/31 14:19:38;;;;;;;7.90;4.37;;;;;;;;;;5067385;28;20482;-73
2021/03/31 14:22:04;;;;;;;8.40;3.80;;;;;;;;;;5071601;28;20908;-72
2021/03/31 14:24:31;;;;;;;11.17;4.03;;;;;;;;;;5050695;28;20414;-74
2021/03/31 14:26:57;;;;;;;7.90;4.60;;;;;;;;;;5050991;28;20505;-73
2021/03/31 14:29:23;;;;;;;5.67;5.17;;;;;;;;;;5051409;28;20421;-75
2021/03/31 14:31:49;;;;;;;9.73;3.40;;;;;;;;;;5049808;28;20426;-73
2021/03/31 14:34:15;;;;;;;6.93;4.03;;;;;;;;;;5051748;28;20529;-72
2021/03/31 14:36:41;;;;;;;6.37;3.40;;;;;;;;;;5087564;28;20914;-72
2021/03/31 14:39:08;;;;;;;7.93;4.13;;;;;;;;;;5059004;28;20522;-74
2021/03/31 14:41:34;;;;;;;6.80;3.63;;;;;;;;;;5081294;28;20402;-74
2021/03/31 14:44:00;;;;;;;8.10;3.13;;;;;;;;;;5070476;28;20928;-74
2021/03/31 14:46:26;;;;;;;7.27;3.60;;;;;;;;;;5060053;28;20477;-71
2021/03/31 14:48:53;;;;;;;9.50;5.47;;;;;;;;;;5102885;28;20420;-74
2021/03/31 14:51:26;;;;;;;7.90;4.70;;;;;;;;;;5061744;28;20492;-72
2021/03/31 14:56:51;;;;;;;6.77;5.00;;;;;;;;;;5072435;28;20473;-75
2021/03/31 14:59:35;;;;;;;9.13;3.63;;;;;;;;;;5051146;28;20470;-73
2021/03/31 15:02:02;;;;;;;13.33;5.93;;;;;;;;;;5063635;28;20465;-73
2021/03/31 15:04:28;;;;;;;7.60;4.20;;;;;;;;;;5077574;28;20440;-72
2021/03/31 15:06:54;;;;;;;11.00;5.13;;;;;;;;;;5085436;28;20445;-74
2021/03/31 15:09:20;;;;;;;9.47;5.40;;;;;;;;;;5077520;28;20518;-73
2021/03/31 15:11:46;;;;;;;5.60;3.43;;;;;;;;;;5070301;28;20411;-72
2021/03/31 15:14:12;;;;;;;7.50;4.23;;;;;;;;;;5074755;28;20502;-73
2021/03/31 15:16:39;;;;;;;7.07;3.50;;;;;;;;;;5087586;28;20402;-70
2021/03/31 15:19:09;;;;;;;6.63;2.93;;;;;;;;;;5080700;28;20391;-74
2021/03/31 15:24:22;;;;;;;9.43;4.33;;;;;;;;;;5077575;28;20441;-73
2021/03/31 15:26:48;;;;;;;7.23;3.67;;;;;;;;;;5087669;28;20395;-75
2021/03/31 15:29:15;;;;;;;12.20;5.20;;;;;;;;;;5097409;28;20469;-76
2021/03/31 15:31:41;;;;;;;5.57;2.90;;;;;;;;;;5073158;28;20428;-76
2021/03/31 15:34:07;;;;;;;7.20;4.17;;;;;;;;;;5070076;28;20460;-75